sensor_id;sensor_type;location;lat;lon;timestamp;P1;durP1;ratioP1;P2;durP2;ratioP2
7316;SDS011;3699;51.462;6.696;2022-12-07T00:02:05;24.30;;;16.53;;
7316;SDS011;3699;51.462;6.696;2022-12-07T00:04:32;21.53;;;16.47;;
7316;SDS011;3699;51.462;6.696;2022-12-07T00:06:59;25.17;;;16.97;;
7316;SDS011;3699;51.462;6.696;2022-12-07T00:09:28;24.10;;;16.67;;
7316;SDS011;3699;51.462;6.696;2022-12-07T00:11:54;24.53;;;18.07;;
7316;SDS011;3699;51.462;6.696;2022-12-07T00:14:21;27.13;;;17.90;;
7316;SDS011;3699;51.462;6.696;2022-12-07T00:16:48;24.37;;;17.13;;
7316;SDS011;3699;51.462;6.696;2022-12-07T00:19:16;23.70;;;17.70;;
7316;SDS011;3699;51.462;6.696;2022-12-07T00:21:44;24.87;;;17.43;;
7316;SDS011;3699;51.462;6.696;2022-12-07T00:24:11;26.33;;;18.53;;
7316;SDS011;3699;51.462;6.696;2022-12-07T00:26:40;24.17;;;18.60;;
7316;SDS011;3699;51.462;6.696;2022-12-07T00:29:09;25.07;;;19.00;;
7316;SDS011;3699;51.462;6.696;2022-12-07T00:31:40;26.47;;;18.43;;
7316;SDS011;3699;51.462;6.696;2022-12-07T00:34:09;24.87;;;18.57;;
7316;SDS011;3699;51.462;6.696;2022-12-07T00:36:39;26.47;;;19.10;;
7316;SDS011;3699;51.462;6.696;2022-12-07T00:39:05;25.30;;;17.80;;
7316;SDS011;3699;51.462;6.696;2022-12-07T00:41:32;24.20;;;17.70;;
7316;SDS011;3699;51.462;6.696;2022-12-07T00:44:00;26.03;;;18.00;;
7316;SDS011;3699;51.462;6.696;2022-12-07T00:46:27;27.40;;;18.77;;
7316;SDS011;3699;51.462;6.696;2022-12-07T00:48:54;26.40;;;17.97;;
7316;SDS011;3699;51.462;6.696;2022-12-07T00:51:21;25.37;;;18.57;;
7316;SDS011;3699;51.462;6.696;2022-12-07T00:53:49;27.33;;;19.43;;
7316;SDS011;3699;51.462;6.696;2022-12-07T00:56:16;29.10;;;18.93;;
7316;SDS011;3699;51.462;6.696;2022-12-07T00:58:48;27.57;;;19.13;;
7316;SDS011;3699;51.462;6.696;2022-12-07T01:01:17;25.27;;;18.93;;
7316;SDS011;3699;51.462;6.696;2022-12-07T01:03:44;28.37;;;18.20;;
7316;SDS011;3699;51.462;6.696;2022-12-07T01:06:13;24.53;;;17.33;;
7316;SDS011;3699;51.462;6.696;2022-12-07T01:08:41;30.70;;;19.13;;
7316;SDS011;3699;51.462;6.696;2022-12-07T01:11:09;27.40;;;18.47;;
7316;SDS011;3699;51.462;6.696;2022-12-07T01:13:39;24.40;;;17.53;;
7316;SDS011;3699;51.462;6.696;2022-12-07T01:16:06;27.90;;;19.97;;
7316;SDS011;3699;51.462;6.696;2022-12-07T01:18:35;27.47;;;19.60;;
7316;SDS011;3699;51.462;6.696;2022-12-07T01:21:03;25.17;;;18.30;;
7316;SDS011;3699;51.462;6.696;2022-12-07T01:23:31;30.17;;;20.47;;
7316;SDS011;3699;51.462;6.696;2022-12-07T01:26:00;24.40;;;17.93;;
7316;SDS011;3699;51.462;6.696;2022-12-07T01:28:28;24.90;;;17.83;;
7316;SDS011;3699;51.462;6.696;2022-12-07T01:30:56;25.60;;;18.30;;
7316;SDS011;3699;51.462;6.696;2022-12-07T01:33:23;30.70;;;18.43;;
7316;SDS011;3699;51.462;6.696;2022-12-07T01:35:51;28.47;;;18.27;;
7316;SDS011;3699;51.462;6.696;2022-12-07T01:38:18;23.60;;;17.23;;
7316;SDS011;3699;51.462;6.696;2022-12-07T01:40:45;27.93;;;17.50;;
7316;SDS011;3699;51.462;6.696;2022-12-07T01:43:14;24.43;;;17.57;;
7316;SDS011;3699;51.462;6.696;2022-12-07T01:45:43;27.63;;;17.60;;
7316;SDS011;3699;51.462;6.696;2022-12-07T01:48:11;24.13;;;16.57;;
7316;SDS011;3699;51.462;6.696;2022-12-07T01:50:42;26.80;;;16.43;;
7316;SDS011;3699;51.462;6.696;2022-12-07T01:53:12;26.60;;;17.93;;
7316;SDS011;3699;51.462;6.696;2022-12-07T01:55:40;27.00;;;17.43;;
7316;SDS011;3699;51.462;6.696;2022-12-07T01:58:09;21.33;;;15.63;;
7316;SDS011;3699;51.462;6.696;2022-12-07T02:00:38;27.73;;;18.23;;
7316;SDS011;3699;51.462;6.696;2022-12-07T02:03:07;27.93;;;17.63;;
7316;SDS011;3699;51.462;6.696;2022-12-07T02:05:37;25.27;;;16.70;;
7316;SDS011;3699;51.462;6.696;2022-12-07T02:08:06;29.37;;;18.00;;
7316;SDS011;3699;51.462;6.696;2022-12-07T02:10:35;30.03;;;17.40;;
7316;SDS011;3699;51.462;6.696;2022-12-07T02:13:02;27.30;;;17.93;;
7316;SDS011;3699;51.462;6.696;2022-12-07T02:15:34;23.73;;;16.70;;
7316;SDS011;3699;51.462;6.696;2022-12-07T02:18:22;24.87;;;16.50;;
7316;SDS011;3699;51.462;6.696;2022-12-07T02:21:02;26.10;;;17.63;;
7316;SDS011;3699;51.462;6.696;2022-12-07T02:23:38;30.73;;;17.33;;
7316;SDS011;3699;51.462;6.696;2022-12-07T02:26:38;29.20;;;17.67;;
7316;SDS011;3699;51.462;6.696;2022-12-07T02:29:20;26.43;;;16.73;;
7316;SDS011;3699;51.462;6.696;2022-12-07T02:31:51;30.63;;;18.70;;
7316;SDS011;3699;51.462;6.696;2022-12-07T02:34:28;28.27;;;17.83;;
7316;SDS011;3699;51.462;6.696;2022-12-07T02:37:00;26.20;;;17.90;;
7316;SDS011;3699;51.462;6.696;2022-12-07T02:39:37;27.67;;;17.70;;
7316;SDS011;3699;51.462;6.696;2022-12-07T02:42:09;28.77;;;18.17;;
7316;SDS011;3699;51.462;6.696;2022-12-07T02:44:42;27.77;;;18.23;;
7316;SDS011;3699;51.462;6.696;2022-12-07T02:47:12;26.93;;;17.33;;
7316;SDS011;3699;51.462;6.696;2022-12-07T02:49:41;29.60;;;20.77;;
7316;SDS011;3699;51.462;6.696;2022-12-07T02:52:08;30.00;;;18.70;;
7316;SDS011;3699;51.462;6.696;2022-12-07T02:54:35;26.83;;;18.47;;
7316;SDS011;3699;51.462;6.696;2022-12-07T02:57:04;27.10;;;18.90;;
7316;SDS011;3699;51.462;6.696;2022-12-07T02:59:46;29.27;;;17.77;;
7316;SDS011;3699;51.462;6.696;2022-12-07T03:02:25;29.53;;;18.33;;
7316;SDS011;3699;51.462;6.696;2022-12-07T03:05:00;24.93;;;17.67;;
7316;SDS011;3699;51.462;6.696;2022-12-07T03:07:37;28.90;;;18.27;;
7316;SDS011;3699;51.462;6.696;2022-12-07T03:10:15;36.30;;;17.47;;
7316;SDS011;3699;51.462;6.696;2022-12-07T03:12:48;26.90;;;17.10;;
7316;SDS011;3699;51.462;6.696;2022-12-07T03:15:25;28.23;;;17.90;;
7316;SDS011;3699;51.462;6.696;2022-12-07T03:17:57;29.23;;;17.67;;
7316;SDS011;3699;51.462;6.696;2022-12-07T03:20:26;24.70;;;18.00;;
7316;SDS011;3699;51.462;6.696;2022-12-07T03:22:57;32.00;;;18.57;;
7316;SDS011;3699;51.462;6.696;2022-12-07T03:25:25;25.17;;;16.97;;
7316;SDS011;3699;51.462;6.696;2022-12-07T03:27:53;25.77;;;16.10;;
7316;SDS011;3699;51.462;6.696;2022-12-07T03:30:24;23.93;;;16.90;;
7316;SDS011;3699;51.462;6.696;2022-12-07T03:32:58;23.93;;;16.23;;
7316;SDS011;3699;51.462;6.696;2022-12-07T03:35:28;28.33;;;19.37;;
7316;SDS011;3699;51.462;6.696;2022-12-07T03:37:59;28.07;;;17.37;;
7316;SDS011;3699;51.462;6.696;2022-12-07T03:40:35;33.47;;;19.23;;
7316;SDS011;3699;51.462;6.696;2022-12-07T03:43:06;28.57;;;17.53;;
7316;SDS011;3699;51.462;6.696;2022-12-07T03:45:37;27.77;;;17.63;;
7316;SDS011;3699;51.462;6.696;2022-12-07T03:48:07;26.67;;;18.20;;
7316;SDS011;3699;51.462;6.696;2022-12-07T03:50:40;28.23;;;18.17;;
7316;SDS011;3699;51.462;6.696;2022-12-07T03:53:14;29.27;;;17.80;;
7316;SDS011;3699;51.462;6.696;2022-12-07T03:55:45;32.70;;;18.47;;
7316;SDS011;3699;51.462;6.696;2022-12-07T03:58:15;28.33;;;18.37;;
7316;SDS011;3699;51.462;6.696;2022-12-07T04:00:46;33.00;;;19.83;;
7316;SDS011;3699;51.462;6.696;2022-12-07T04:03:14;34.10;;;19.00;;
7316;SDS011;3699;51.462;6.696;2022-12-07T04:05:41;32.37;;;19.77;;
7316;SDS011;3699;51.462;6.696;2022-12-07T04:08:08;29.67;;;18.27;;
7316;SDS011;3699;51.462;6.696;2022-12-07T04:10:35;29.30;;;18.83;;
7316;SDS011;3699;51.462;6.696;2022-12-07T04:13:02;32.33;;;18.87;;
7316;SDS011;3699;51.462;6.696;2022-12-07T04:15:29;30.13;;;18.63;;
7316;SDS011;3699;51.462;6.696;2022-12-07T04:17:57;34.27;;;18.97;;
7316;SDS011;3699;51.462;6.696;2022-12-07T04:20:24;26.07;;;18.03;;
7316;SDS011;3699;51.462;6.696;2022-12-07T04:22:51;29.20;;;17.40;;
7316;SDS011;3699;51.462;6.696;2022-12-07T04:25:17;28.57;;;16.63;;
7316;SDS011;3699;51.462;6.696;2022-12-07T04:27:44;27.93;;;18.63;;
7316;SDS011;3699;51.462;6.696;2022-12-07T04:30:11;29.37;;;17.50;;
7316;SDS011;3699;51.462;6.696;2022-12-07T04:32:38;27.03;;;16.83;;
7316;SDS011;3699;51.462;6.696;2022-12-07T04:35:06;23.13;;;15.90;;
7316;SDS011;3699;51.462;6.696;2022-12-07T04:37:34;28.07;;;17.63;;
7316;SDS011;3699;51.462;6.696;2022-12-07T04:40:00;28.77;;;17.23;;
7316;SDS011;3699;51.462;6.696;2022-12-07T04:42:27;26.10;;;16.63;;
7316;SDS011;3699;51.462;6.696;2022-12-07T04:44:54;25.37;;;16.87;;
7316;SDS011;3699;51.462;6.696;2022-12-07T04:47:21;29.37;;;17.30;;
7316;SDS011;3699;51.462;6.696;2022-12-07T04:49:47;24.53;;;16.70;;
7316;SDS011;3699;51.462;6.696;2022-12-07T04:52:15;26.73;;;16.57;;
7316;SDS011;3699;51.462;6.696;2022-12-07T04:54:42;28.97;;;17.20;;
7316;SDS011;3699;51.462;6.696;2022-12-07T04:57:09;29.17;;;17.23;;
7316;SDS011;3699;51.462;6.696;2022-12-07T04:59:35;34.77;;;17.87;;
7316;SDS011;3699;51.462;6.696;2022-12-07T05:02:02;29.33;;;17.70;;
7316;SDS011;3699;51.462;6.696;2022-12-07T05:04:29;28.70;;;17.43;;
7316;SDS011;3699;51.462;6.696;2022-12-07T05:06:56;27.93;;;16.53;;
7316;SDS011;3699;51.462;6.696;2022-12-07T05:09:24;25.53;;;15.93;;
7316;SDS011;3699;51.462;6.696;2022-12-07T05:11:50;25.27;;;16.10;;
7316;SDS011;3699;51.462;6.696;2022-12-07T05:14:18;25.63;;;15.30;;
7316;SDS011;3699;51.462;6.696;2022-12-07T05:16:46;23.63;;;14.77;;
7316;SDS011;3699;51.462;6.696;2022-12-07T05:19:15;26.07;;;15.10;;
7316;SDS011;3699;51.462;6.696;2022-12-07T05:21:43;22.53;;;15.50;;
7316;SDS011;3699;51.462;6.696;2022-12-07T05:24:10;24.70;;;14.67;;
7316;SDS011;3699;51.462;6.696;2022-12-07T05:26:40;24.70;;;15.20;;
7316;SDS011;3699;51.462;6.696;2022-12-07T05:29:07;23.07;;;13.70;;
7316;SDS011;3699;51.462;6.696;2022-12-07T05:31:37;22.43;;;15.33;;
7316;SDS011;3699;51.462;6.696;2022-12-07T05:34:03;23.73;;;14.30;;
7316;SDS011;3699;51.462;6.696;2022-12-07T05:36:30;18.93;;;13.87;;
7316;SDS011;3699;51.462;6.696;2022-12-07T05:38:57;22.67;;;12.87;;
7316;SDS011;3699;51.462;6.696;2022-12-07T05:41:24;21.63;;;12.37;;
7316;SDS011;3699;51.462;6.696;2022-12-07T05:44:09;19.93;;;12.73;;
7316;SDS011;3699;51.462;6.696;2022-12-07T05:46:36;24.33;;;13.40;;
7316;SDS011;3699;51.462;6.696;2022-12-07T05:49:03;19.50;;;12.97;;
7316;SDS011;3699;51.462;6.696;2022-12-07T05:51:29;19.83;;;12.53;;
7316;SDS011;3699;51.462;6.696;2022-12-07T05:53:56;18.40;;;13.27;;
7316;SDS011;3699;51.462;6.696;2022-12-07T05:56:23;22.83;;;13.53;;
7316;SDS011;3699;51.462;6.696;2022-12-07T05:58:51;24.73;;;13.83;;
7316;SDS011;3699;51.462;6.696;2022-12-07T06:01:37;22.37;;;13.43;;
7316;SDS011;3699;51.462;6.696;2022-12-07T06:04:04;24.83;;;14.37;;
7316;SDS011;3699;51.462;6.696;2022-12-07T06:06:30;24.77;;;13.37;;
7316;SDS011;3699;51.462;6.696;2022-12-07T06:08:57;26.77;;;15.00;;
7316;SDS011;3699;51.462;6.696;2022-12-07T06:11:24;24.90;;;14.10;;
7316;SDS011;3699;51.462;6.696;2022-12-07T06:14:08;22.27;;;13.00;;
7316;SDS011;3699;51.462;6.696;2022-12-07T06:16:36;21.70;;;12.70;;
7316;SDS011;3699;51.462;6.696;2022-12-07T06:19:03;25.73;;;12.50;;
7316;SDS011;3699;51.462;6.696;2022-12-07T06:21:29;20.57;;;11.57;;
7316;SDS011;3699;51.462;6.696;2022-12-07T06:23:56;21.77;;;13.97;;
7316;SDS011;3699;51.462;6.696;2022-12-07T06:26:23;21.77;;;12.07;;
7316;SDS011;3699;51.462;6.696;2022-12-07T06:28:49;18.20;;;11.50;;
7316;SDS011;3699;51.462;6.696;2022-12-07T06:31:16;16.33;;;11.73;;
7316;SDS011;3699;51.462;6.696;2022-12-07T06:33:44;19.33;;;12.40;;
7316;SDS011;3699;51.462;6.696;2022-12-07T06:36:11;22.77;;;12.80;;
7316;SDS011;3699;51.462;6.696;2022-12-07T06:38:38;23.03;;;12.37;;
7316;SDS011;3699;51.462;6.696;2022-12-07T06:41:05;20.93;;;12.60;;
7316;SDS011;3699;51.462;6.696;2022-12-07T06:43:32;21.97;;;13.13;;
7316;SDS011;3699;51.462;6.696;2022-12-07T06:45:59;21.50;;;12.37;;
7316;SDS011;3699;51.462;6.696;2022-12-07T06:48:25;18.70;;;12.83;;
7316;SDS011;3699;51.462;6.696;2022-12-07T06:50:54;26.53;;;16.97;;
7316;SDS011;3699;51.462;6.696;2022-12-07T06:53:20;39.43;;;22.00;;
7316;SDS011;3699;51.462;6.696;2022-12-07T06:55:47;33.07;;;18.77;;
7316;SDS011;3699;51.462;6.696;2022-12-07T06:58:14;28.83;;;16.83;;
7316;SDS011;3699;51.462;6.696;2022-12-07T07:00:41;25.00;;;14.23;;
7316;SDS011;3699;51.462;6.696;2022-12-07T07:03:08;24.03;;;14.50;;
7316;SDS011;3699;51.462;6.696;2022-12-07T07:05:35;22.63;;;15.43;;
7316;SDS011;3699;51.462;6.696;2022-12-07T07:08:03;20.80;;;12.57;;
7316;SDS011;3699;51.462;6.696;2022-12-07T07:10:30;22.63;;;13.27;;
7316;SDS011;3699;51.462;6.696;2022-12-07T07:12:56;20.47;;;12.63;;
7316;SDS011;3699;51.462;6.696;2022-12-07T07:15:23;17.83;;;12.97;;
7316;SDS011;3699;51.462;6.696;2022-12-07T07:17:50;22.17;;;13.30;;
7316;SDS011;3699;51.462;6.696;2022-12-07T07:20:17;21.93;;;13.40;;
7316;SDS011;3699;51.462;6.696;2022-12-07T07:22:43;23.20;;;14.17;;
7316;SDS011;3699;51.462;6.696;2022-12-07T07:25:12;22.87;;;13.40;;
7316;SDS011;3699;51.462;6.696;2022-12-07T07:27:38;19.27;;;13.10;;
7316;SDS011;3699;51.462;6.696;2022-12-07T07:30:05;20.37;;;13.43;;
7316;SDS011;3699;51.462;6.696;2022-12-07T07:32:33;20.67;;;13.47;;
7316;SDS011;3699;51.462;6.696;2022-12-07T07:35:00;24.80;;;14.40;;
7316;SDS011;3699;51.462;6.696;2022-12-07T07:37:27;25.60;;;14.03;;
7316;SDS011;3699;51.462;6.696;2022-12-07T07:39:54;20.37;;;13.27;;
7316;SDS011;3699;51.462;6.696;2022-12-07T07:42:22;20.57;;;13.33;;
7316;SDS011;3699;51.462;6.696;2022-12-07T07:44:49;22.50;;;12.23;;
7316;SDS011;3699;51.462;6.696;2022-12-07T07:47:15;21.90;;;13.87;;
7316;SDS011;3699;51.462;6.696;2022-12-07T07:49:42;23.50;;;14.37;;
7316;SDS011;3699;51.462;6.696;2022-12-07T07:52:09;24.20;;;14.57;;
7316;SDS011;3699;51.462;6.696;2022-12-07T07:54:36;21.40;;;13.47;;
7316;SDS011;3699;51.462;6.696;2022-12-07T07:57:03;28.27;;;13.60;;
7316;SDS011;3699;51.462;6.696;2022-12-07T07:59:31;18.20;;;12.53;;
7316;SDS011;3699;51.462;6.696;2022-12-07T08:01:57;20.13;;;13.33;;
7316;SDS011;3699;51.462;6.696;2022-12-07T08:04:24;19.73;;;12.93;;
7316;SDS011;3699;51.462;6.696;2022-12-07T08:06:51;18.00;;;12.47;;
7316;SDS011;3699;51.462;6.696;2022-12-07T08:09:18;18.87;;;11.73;;
7316;SDS011;3699;51.462;6.696;2022-12-07T08:11:44;18.77;;;11.63;;
7316;SDS011;3699;51.462;6.696;2022-12-07T08:14:11;20.40;;;11.73;;
7316;SDS011;3699;51.462;6.696;2022-12-07T08:16:39;19.67;;;11.47;;
7316;SDS011;3699;51.462;6.696;2022-12-07T08:19:06;21.67;;;13.20;;
7316;SDS011;3699;51.462;6.696;2022-12-07T08:21:33;16.43;;;10.80;;
7316;SDS011;3699;51.462;6.696;2022-12-07T08:23:59;18.80;;;11.63;;
7316;SDS011;3699;51.462;6.696;2022-12-07T08:26:26;21.67;;;12.50;;
7316;SDS011;3699;51.462;6.696;2022-12-07T08:28:53;21.90;;;13.10;;
7316;SDS011;3699;51.462;6.696;2022-12-07T08:31:19;25.17;;;13.30;;
7316;SDS011;3699;51.462;6.696;2022-12-07T08:33:47;20.47;;;12.90;;
7316;SDS011;3699;51.462;6.696;2022-12-07T08:36:15;21.60;;;12.67;;
7316;SDS011;3699;51.462;6.696;2022-12-07T08:38:42;27.27;;;13.60;;
7316;SDS011;3699;51.462;6.696;2022-12-07T08:41:09;19.27;;;12.37;;
7316;SDS011;3699;51.462;6.696;2022-12-07T08:43:36;24.10;;;13.23;;
7316;SDS011;3699;51.462;6.696;2022-12-07T08:46:05;20.67;;;12.43;;
7316;SDS011;3699;51.462;6.696;2022-12-07T08:48:35;22.00;;;12.33;;
7316;SDS011;3699;51.462;6.696;2022-12-07T08:51:06;18.90;;;11.37;;
7316;SDS011;3699;51.462;6.696;2022-12-07T08:53:33;24.53;;;12.43;;
7316;SDS011;3699;51.462;6.696;2022-12-07T08:56:01;17.40;;;11.33;;
7316;SDS011;3699;51.462;6.696;2022-12-07T08:58:29;20.33;;;11.60;;
7316;SDS011;3699;51.462;6.696;2022-12-07T09:00:56;17.77;;;11.53;;
7316;SDS011;3699;51.462;6.696;2022-12-07T09:03:22;20.30;;;11.57;;
7316;SDS011;3699;51.462;6.696;2022-12-07T09:05:49;23.43;;;12.20;;
7316;SDS011;3699;51.462;6.696;2022-12-07T09:08:17;22.57;;;13.83;;
7316;SDS011;3699;51.462;6.696;2022-12-07T09:10:45;17.43;;;12.50;;
7316;SDS011;3699;51.462;6.696;2022-12-07T09:13:12;18.30;;;11.27;;
7316;SDS011;3699;51.462;6.696;2022-12-07T09:15:39;19.37;;;11.20;;
7316;SDS011;3699;51.462;6.696;2022-12-07T09:18:06;18.80;;;11.73;;
7316;SDS011;3699;51.462;6.696;2022-12-07T09:20:33;13.80;;;10.20;;
7316;SDS011;3699;51.462;6.696;2022-12-07T09:23:00;14.97;;;9.43;;
7316;SDS011;3699;51.462;6.696;2022-12-07T09:25:28;13.53;;;9.20;;
7316;SDS011;3699;51.462;6.696;2022-12-07T09:27:55;16.27;;;9.00;;
7316;SDS011;3699;51.462;6.696;2022-12-07T09:30:23;19.17;;;9.23;;
7316;SDS011;3699;51.462;6.696;2022-12-07T09:32:51;10.37;;;8.40;;
7316;SDS011;3699;51.462;6.696;2022-12-07T09:35:19;11.83;;;8.77;;
7316;SDS011;3699;51.462;6.696;2022-12-07T09:37:45;16.80;;;9.30;;
7316;SDS011;3699;51.462;6.696;2022-12-07T09:40:12;13.97;;;7.73;;
7316;SDS011;3699;51.462;6.696;2022-12-07T09:42:43;18.97;;;8.20;;
7316;SDS011;3699;51.462;6.696;2022-12-07T09:45:14;11.23;;;7.67;;
7316;SDS011;3699;51.462;6.696;2022-12-07T09:47:43;19.93;;;8.10;;
7316;SDS011;3699;51.462;6.696;2022-12-07T09:50:12;14.27;;;8.10;;
7316;SDS011;3699;51.462;6.696;2022-12-07T09:52:41;14.97;;;8.57;;
7316;SDS011;3699;51.462;6.696;2022-12-07T09:55:10;15.83;;;8.03;;
7316;SDS011;3699;51.462;6.696;2022-12-07T09:57:39;11.77;;;8.23;;
7316;SDS011;3699;51.462;6.696;2022-12-07T10:00:12;9.53;;;7.53;;
7316;SDS011;3699;51.462;6.696;2022-12-07T10:02:43;12.93;;;7.53;;
7316;SDS011;3699;51.462;6.696;2022-12-07T10:05:13;15.93;;;8.90;;
7316;SDS011;3699;51.462;6.696;2022-12-07T10:07:42;16.53;;;8.17;;
7316;SDS011;3699;51.462;6.696;2022-12-07T10:10:13;8.00;;;6.23;;
7316;SDS011;3699;51.462;6.696;2022-12-07T10:12:52;11.57;;;7.13;;
7316;SDS011;3699;51.462;6.696;2022-12-07T10:15:22;10.67;;;7.00;;
7316;SDS011;3699;51.462;6.696;2022-12-07T10:17:49;8.23;;;6.20;;
7316;SDS011;3699;51.462;6.696;2022-12-07T10:20:20;16.10;;;7.00;;
7316;SDS011;3699;51.462;6.696;2022-12-07T10:22:59;10.00;;;5.47;;
7316;SDS011;3699;51.462;6.696;2022-12-07T10:25:28;8.73;;;6.07;;
7316;SDS011;3699;51.462;6.696;2022-12-07T10:28:02;9.93;;;5.60;;
7316;SDS011;3699;51.462;6.696;2022-12-07T10:30:47;17.60;;;6.90;;
7316;SDS011;3699;51.462;6.696;2022-12-07T10:33:27;15.53;;;6.20;;
7316;SDS011;3699;51.462;6.696;2022-12-07T10:36:00;11.13;;;6.20;;
7316;SDS011;3699;51.462;6.696;2022-12-07T10:38:43;10.43;;;5.50;;
7316;SDS011;3699;51.462;6.696;2022-12-07T10:41:11;12.30;;;5.50;;
7316;SDS011;3699;51.462;6.696;2022-12-07T10:43:41;7.77;;;5.13;;
7316;SDS011;3699;51.462;6.696;2022-12-07T10:46:20;12.03;;;6.57;;
7316;SDS011;3699;51.462;6.696;2022-12-07T10:49:08;10.17;;;6.20;;
7316;SDS011;3699;51.462;6.696;2022-12-07T10:52:11;15.57;;;5.17;;
7316;SDS011;3699;51.462;6.696;2022-12-07T10:54:45;10.57;;;5.20;;
7316;SDS011;3699;51.462;6.696;2022-12-07T10:57:28;14.40;;;5.83;;
7316;SDS011;3699;51.462;6.696;2022-12-07T11:00:18;9.20;;;5.27;;
7316;SDS011;3699;51.462;6.696;2022-12-07T11:05:47;8.30;;;5.67;;
7316;SDS011;3699;51.462;6.696;2022-12-07T11:08:25;13.77;;;5.03;;
7316;SDS011;3699;51.462;6.696;2022-12-07T11:11:04;8.87;;;4.97;;
7316;SDS011;3699;51.462;6.696;2022-12-07T11:13:37;10.33;;;5.37;;
7316;SDS011;3699;51.462;6.696;2022-12-07T11:16:28;10.27;;;5.03;;
7316;SDS011;3699;51.462;6.696;2022-12-07T11:19:12;7.60;;;4.80;;
7316;SDS011;3699;51.462;6.696;2022-12-07T11:21:53;12.63;;;5.07;;
7316;SDS011;3699;51.462;6.696;2022-12-07T11:24:24;10.27;;;5.47;;
7316;SDS011;3699;51.462;6.696;2022-12-07T11:27:01;10.50;;;5.20;;
7316;SDS011;3699;51.462;6.696;2022-12-07T11:29:50;9.63;;;4.93;;
7316;SDS011;3699;51.462;6.696;2022-12-07T11:32:29;7.57;;;5.20;;
7316;SDS011;3699;51.462;6.696;2022-12-07T11:35:11;7.87;;;4.97;;
7316;SDS011;3699;51.462;6.696;2022-12-07T11:37:45;10.30;;;5.40;;
7316;SDS011;3699;51.462;6.696;2022-12-07T11:40:14;10.63;;;4.73;;
7316;SDS011;3699;51.462;6.696;2022-12-07T11:42:46;9.80;;;5.00;;
7316;SDS011;3699;51.462;6.696;2022-12-07T11:45:19;8.53;;;5.00;;
7316;SDS011;3699;51.462;6.696;2022-12-07T11:47:51;10.07;;;5.43;;
7316;SDS011;3699;51.462;6.696;2022-12-07T11:50:24;11.23;;;5.13;;
7316;SDS011;3699;51.462;6.696;2022-12-07T11:52:56;13.07;;;6.70;;
7316;SDS011;3699;51.462;6.696;2022-12-07T11:55:27;9.57;;;5.73;;
7316;SDS011;3699;51.462;6.696;2022-12-07T11:57:59;9.80;;;5.37;;
7316;SDS011;3699;51.462;6.696;2022-12-07T12:00:30;8.43;;;5.30;;
7316;SDS011;3699;51.462;6.696;2022-12-07T12:02:58;9.80;;;5.40;;
7316;SDS011;3699;51.462;6.696;2022-12-07T12:05:28;10.40;;;5.10;;
7316;SDS011;3699;51.462;6.696;2022-12-07T12:07:59;10.47;;;5.50;;
7316;SDS011;3699;51.462;6.696;2022-12-07T12:10:35;7.20;;;5.20;;
7316;SDS011;3699;51.462;6.696;2022-12-07T12:13:28;7.03;;;5.43;;
7316;SDS011;3699;51.462;6.696;2022-12-07T12:16:26;11.23;;;5.83;;
7316;SDS011;3699;51.462;6.696;2022-12-07T12:19:21;8.70;;;5.10;;
7316;SDS011;3699;51.462;6.696;2022-12-07T12:21:54;12.40;;;5.40;;
7316;SDS011;3699;51.462;6.696;2022-12-07T12:24:26;9.20;;;4.87;;
7316;SDS011;3699;51.462;6.696;2022-12-07T12:26:56;8.30;;;5.07;;
7316;SDS011;3699;51.462;6.696;2022-12-07T12:29:28;11.57;;;5.10;;
7316;SDS011;3699;51.462;6.696;2022-12-07T12:32:06;11.10;;;5.30;;
7316;SDS011;3699;51.462;6.696;2022-12-07T12:34:39;8.93;;;5.10;;
7316;SDS011;3699;51.462;6.696;2022-12-07T12:55:12;8.90;;;4.53;;
7316;SDS011;3699;51.462;6.696;2022-12-07T12:57:45;13.50;;;4.90;;
7316;SDS011;3699;51.462;6.696;2022-12-07T13:00:15;7.37;;;4.20;;
7316;SDS011;3699;51.462;6.696;2022-12-07T13:02:47;5.87;;;4.30;;
7316;SDS011;3699;51.462;6.696;2022-12-07T13:05:16;6.53;;;4.27;;
7316;SDS011;3699;51.462;6.696;2022-12-07T13:07:48;6.60;;;5.10;;
7316;SDS011;3699;51.462;6.696;2022-12-07T13:10:34;7.40;;;4.90;;
7316;SDS011;3699;51.462;6.696;2022-12-07T13:25:11;6.80;;;4.57;;
7316;SDS011;3699;51.462;6.696;2022-12-07T13:27:46;9.33;;;4.40;;
7316;SDS011;3699;51.462;6.696;2022-12-07T13:30:20;10.80;;;4.70;;
7316;SDS011;3699;51.462;6.696;2022-12-07T13:32:50;6.40;;;4.03;;
7316;SDS011;3699;51.462;6.696;2022-12-07T13:38:04;7.67;;;4.13;;
7316;SDS011;3699;51.462;6.696;2022-12-07T13:41:02;9.87;;;4.27;;
7316;SDS011;3699;51.462;6.696;2022-12-07T13:43:30;11.10;;;4.50;;
7316;SDS011;3699;51.462;6.696;2022-12-07T13:45:58;6.63;;;4.37;;
7316;SDS011;3699;51.462;6.696;2022-12-07T13:48:28;8.27;;;4.93;;
7316;SDS011;3699;51.462;6.696;2022-12-07T13:50:59;4.97;;;3.80;;
7316;SDS011;3699;51.462;6.696;2022-12-07T13:53:27;8.13;;;3.90;;
7316;SDS011;3699;51.462;6.696;2022-12-07T13:55:55;9.77;;;3.80;;
7316;SDS011;3699;51.462;6.696;2022-12-07T13:58:22;9.80;;;3.67;;
7316;SDS011;3699;51.462;6.696;2022-12-07T14:00:49;6.80;;;3.53;;
7316;SDS011;3699;51.462;6.696;2022-12-07T14:03:31;16.77;;;15.00;;
7316;SDS011;3699;51.462;6.696;2022-12-07T14:06:03;50.20;;;44.87;;
7316;SDS011;3699;51.462;6.696;2022-12-07T14:08:40;25.63;;;22.30;;
7316;SDS011;3699;51.462;6.696;2022-12-07T14:11:07;17.73;;;14.93;;
7316;SDS011;3699;51.462;6.696;2022-12-07T14:13:39;30.77;;;26.80;;
7316;SDS011;3699;51.462;6.696;2022-12-07T14:16:17;25.73;;;20.53;;
7316;SDS011;3699;51.462;6.696;2022-12-07T14:18:50;14.27;;;9.17;;
7316;SDS011;3699;51.462;6.696;2022-12-07T14:21:18;17.20;;;13.33;;
7316;SDS011;3699;51.462;6.696;2022-12-07T14:24:02;9.80;;;5.37;;
7316;SDS011;3699;51.462;6.696;2022-12-07T14:26:35;10.90;;;7.07;;
7316;SDS011;3699;51.462;6.696;2022-12-07T14:29:18;16.87;;;8.73;;
7316;SDS011;3699;51.462;6.696;2022-12-07T14:31:46;14.27;;;9.87;;
7316;SDS011;3699;51.462;6.696;2022-12-07T14:34:14;17.30;;;12.33;;
7316;SDS011;3699;51.462;6.696;2022-12-07T14:36:41;7.93;;;4.60;;
7316;SDS011;3699;51.462;6.696;2022-12-07T14:39:08;14.63;;;10.43;;
7316;SDS011;3699;51.462;6.696;2022-12-07T14:41:34;18.10;;;11.30;;
7316;SDS011;3699;51.462;6.696;2022-12-07T14:44:17;12.60;;;8.20;;
7316;SDS011;3699;51.462;6.696;2022-12-07T14:46:44;13.63;;;8.50;;
7316;SDS011;3699;51.462;6.696;2022-12-07T14:49:11;10.37;;;6.80;;
7316;SDS011;3699;51.462;6.696;2022-12-07T14:51:39;15.13;;;8.57;;
7316;SDS011;3699;51.462;6.696;2022-12-07T14:54:09;8.83;;;5.80;;
7316;SDS011;3699;51.462;6.696;2022-12-07T14:56:41;10.07;;;5.97;;
7316;SDS011;3699;51.462;6.696;2022-12-07T14:59:09;9.83;;;5.07;;
7316;SDS011;3699;51.462;6.696;2022-12-07T15:01:36;9.00;;;5.90;;
7316;SDS011;3699;51.462;6.696;2022-12-07T15:04:03;9.07;;;5.03;;
7316;SDS011;3699;51.462;6.696;2022-12-07T15:06:30;14.13;;;9.40;;
7316;SDS011;3699;51.462;6.696;2022-12-07T15:08:58;12.07;;;7.93;;
7316;SDS011;3699;51.462;6.696;2022-12-07T15:11:25;11.47;;;7.73;;
7316;SDS011;3699;51.462;6.696;2022-12-07T15:13:52;9.53;;;6.23;;
7316;SDS011;3699;51.462;6.696;2022-12-07T15:16:36;11.03;;;6.10;;
7316;SDS011;3699;51.462;6.696;2022-12-07T15:19:04;10.77;;;6.20;;
7316;SDS011;3699;51.462;6.696;2022-12-07T15:21:31;11.90;;;7.80;;
7316;SDS011;3699;51.462;6.696;2022-12-07T15:24:00;17.50;;;11.37;;
7316;SDS011;3699;51.462;6.696;2022-12-07T15:26:26;16.47;;;8.40;;
7316;SDS011;3699;51.462;6.696;2022-12-07T15:28:53;22.73;;;12.23;;
7316;SDS011;3699;51.462;6.696;2022-12-07T15:31:20;21.80;;;9.70;;
7316;SDS011;3699;51.462;6.696;2022-12-07T15:33:47;17.70;;;11.87;;
7316;SDS011;3699;51.462;6.696;2022-12-07T15:36:16;24.30;;;15.60;;
7316;SDS011;3699;51.462;6.696;2022-12-07T15:38:46;20.20;;;11.93;;
7316;SDS011;3699;51.462;6.696;2022-12-07T15:41:14;19.77;;;9.23;;
7316;SDS011;3699;51.462;6.696;2022-12-07T15:43:41;10.43;;;7.17;;
7316;SDS011;3699;51.462;6.696;2022-12-07T15:46:28;11.80;;;6.73;;
7316;SDS011;3699;51.462;6.696;2022-12-07T15:48:56;12.53;;;6.90;;
7316;SDS011;3699;51.462;6.696;2022-12-07T15:51:23;18.23;;;8.33;;